Time;durP1;ratioP1;P1;durP2;ratioP2;P2;SDS_P1;SDS_P2;PMS_P1;PMS_P2;Temp;Humidity;BMP_temperature;BMP_pressure;BME280_temperature;BME280_humidity;BME280_pressure;Samples;Min_cycle;Max_cycle;Signal;HPM_P1;HPM_P2
2023/07/22 00:01:15;;;;;;;20.48;5.00;;;;;;;;;;6306104;22;20415;-63
2023/07/22 00:03:43;;;;;;;16.40;4.30;;;;;;;;;;6306509;22;20012;-63
2023/07/22 00:06:11;;;;;;;23.15;4.03;;;;;;;;;;6306663;22;20015;-63
2023/07/22 00:08:39;;;;;;;15.32;3.22;;;;;;;;;;6305987;22;20342;-63
2023/07/22 00:11:06;;;;;;;14.85;3.22;;;;;;;;;;6306440;22;20015;-63
2023/07/22 00:13:34;;;;;;;10.02;2.28;;;;;;;;;;6306556;22;20034;-63
2023/07/22 00:16:07;;;;;;;7.03;1.75;;;;;;;;;;6306175;22;20015;-63
2023/07/22 00:18:35;;;;;;;6.43;1.90;;;;;;;;;;6306483;22;20039;-63
2023/07/22 00:21:02;;;;;;;3.95;1.70;;;;;;;;;;6306263;22;20030;-63
2023/07/22 00:23:30;;;;;;;5.97;2.30;;;;;;;;;;6306851;22;20441;-63
2023/07/22 00:25:57;;;;;;;5.55;2.13;;;;;;;;;;6279711;22;20387;-63
2023/07/22 00:28:25;;;;;;;7.18;1.85;;;;;;;;;;6307027;22;20019;-63
2023/07/22 00:30:53;;;;;;;3.28;1.40;;;;;;;;;;6279289;22;20078;-63
2023/07/22 00:33:21;;;;;;;6.13;1.73;;;;;;;;;;6306429;22;20019;-63
2023/07/22 00:35:52;;;;;;;3.92;1.55;;;;;;;;;;6254139;22;20019;-63
2023/07/22 00:38:19;;;;;;;5.40;1.70;;;;;;;;;;6278908;22;20106;-63
2023/07/22 00:40:47;;;;;;;3.03;1.50;;;;;;;;;;6279151;22;20015;-63
2023/07/22 00:43:15;;;;;;;4.47;1.48;;;;;;;;;;6306589;22;20049;-63
2023/07/22 00:45:43;;;;;;;4.10;1.30;;;;;;;;;;6279098;22;20106;-63
2023/07/22 00:48:10;;;;;;;4.82;1.50;;;;;;;;;;6279033;22;20019;-63
2023/07/22 00:50:39;;;;;;;3.30;1.60;;;;;;;;;;6306289;22;20015;-63
2023/07/22 00:53:06;;;;;;;3.60;1.33;;;;;;;;;;6279167;22;20177;-63
2023/07/22 00:55:35;;;;;;;4.85;1.70;;;;;;;;;;6306525;22;20015;-63
2023/07/22 00:58:02;;;;;;;3.85;1.40;;;;;;;;;;6278470;22;20023;-63
2023/07/22 01:00:30;;;;;;;5.38;1.50;;;;;;;;;;6278779;22;20023;-64
2023/07/22 01:02:58;;;;;;;3.58;1.48;;;;;;;;;;6273313;22;20032;-63
2023/07/22 01:05:27;;;;;;;5.80;1.67;;;;;;;;;;6275009;22;20032;-63
2023/07/22 01:07:55;;;;;;;3.08;1.33;;;;;;;;;;6274558;22;20532;-63
2023/07/22 01:10:22;;;;;;;2.72;1.15;;;;;;;;;;6273107;22;20020;-63
2023/07/22 01:12:50;;;;;;;3.33;1.38;;;;;;;;;;6275340;22;20028;-63
2023/07/22 01:15:18;;;;;;;4.85;1.70;;;;;;;;;;6274972;22;20055;-64
2023/07/22 01:17:45;;;;;;;2.38;1.20;;;;;;;;;;6274970;22;20019;-63
2023/07/22 01:20:13;;;;;;;2.38;1.20;;;;;;;;;;6274246;22;20073;-63
2023/07/22 01:22:42;;;;;;;4.15;1.63;;;;;;;;;;6247851;22;20045;-63
2023/07/22 01:25:10;;;;;;;5.20;1.45;;;;;;;;;;6275267;22;20019;-63
2023/07/22 01:27:38;;;;;;;2.55;1.20;;;;;;;;;;6275168;22;20023;-63
2023/07/22 01:30:07;;;;;;;5.20;1.70;;;;;;;;;;6272896;22;20030;-63
2023/07/22 01:32:35;;;;;;;4.22;1.73;;;;;;;;;;6274028;22;20073;-63
2023/07/22 01:35:02;;;;;;;3.95;1.65;;;;;;;;;;6248580;22;20024;-63
2023/07/22 01:37:31;;;;;;;2.55;1.40;;;;;;;;;;6273603;22;20043;-63
2023/07/22 01:39:59;;;;;;;2.35;1.30;;;;;;;;;;6275108;22;20034;-63
2023/07/22 01:42:27;;;;;;;4.93;1.70;;;;;;;;;;6273567;22;20024;-63
2023/07/22 01:44:54;;;;;;;3.92;1.30;;;;;;;;;;6273941;22;20043;-63
2023/07/22 01:47:22;;;;;;;4.25;1.67;;;;;;;;;;6273161;22;20077;-63
2023/07/22 01:49:49;;;;;;;4.72;1.48;;;;;;;;;;6272356;22;20099;-63
2023/07/22 01:52:17;;;;;;;4.03;2.10;;;;;;;;;;6272627;22;20023;-63
2023/07/22 01:54:44;;;;;;;2.22;1.40;;;;;;;;;;6273146;22;20485;-63
2023/07/22 01:57:12;;;;;;;4.50;1.42;;;;;;;;;;6273542;22;20019;-63
2023/07/22 01:59:40;;;;;;;3.78;1.67;;;;;;;;;;6248771;22;20177;-63
2023/07/22 02:02:07;;;;;;;3.53;1.58;;;;;;;;;;6275632;22;20047;-63
2023/07/22 02:04:35;;;;;;;4.00;1.80;;;;;;;;;;6278068;22;20451;-63
2023/07/22 02:07:03;;;;;;;3.35;1.48;;;;;;;;;;6278062;22;20027;-64
2023/07/22 02:09:30;;;;;;;5.55;1.90;;;;;;;;;;6279258;22;20015;-63
2023/07/22 02:11:58;;;;;;;2.80;1.40;;;;;;;;;;6278976;22;20015;-63
2023/07/22 02:14:25;;;;;;;4.10;1.55;;;;;;;;;;6305537;22;20086;-64
2023/07/22 02:16:53;;;;;;;4.32;1.52;;;;;;;;;;6278611;22;20114;-64
2023/07/22 02:19:21;;;;;;;3.00;1.60;;;;;;;;;;6277771;22;20388;-65
2023/07/22 02:21:48;;;;;;;4.82;1.60;;;;;;;;;;6277953;22;20395;-64
2023/07/22 02:24:16;;;;;;;4.85;1.67;;;;;;;;;;6278556;22;20388;-64
2023/07/22 02:26:45;;;;;;;3.35;1.67;;;;;;;;;;6306649;22;20077;-64
2023/07/22 02:29:12;;;;;;;2.38;1.35;;;;;;;;;;6306233;22;20018;-64
2023/07/22 02:31:39;;;;;;;5.05;1.60;;;;;;;;;;6277471;22;20023;-64
2023/07/22 02:34:07;;;;;;;3.45;1.40;;;;;;;;;;6278735;22;20023;-64
2023/07/22 02:36:35;;;;;;;4.55;2.00;;;;;;;;;;6278528;22;20023;-63
2023/07/22 02:39:03;;;;;;;3.90;1.58;;;;;;;;;;6279741;22;20507;-64
2023/07/22 02:41:30;;;;;;;3.83;1.52;;;;;;;;;;6306802;22;20019;-63
2023/07/22 02:43:58;;;;;;;4.40;1.70;;;;;;;;;;6254061;22;20379;-63
2023/07/22 02:46:26;;;;;;;2.72;1.30;;;;;;;;;;6306543;22;20019;-64
2023/07/22 02:48:54;;;;;;;6.18;2.10;;;;;;;;;;6278312;22;20042;-63
2023/07/22 02:51:22;;;;;;;3.65;1.83;;;;;;;;;;6279453;22;20019;-64
2023/07/22 02:53:49;;;;;;;4.82;1.60;;;;;;;;;;6279390;22;20322;-64
2023/07/22 02:56:17;;;;;;;6.07;1.60;;;;;;;;;;6306811;22;20380;-63
2023/07/22 02:58:44;;;;;;;4.05;1.35;;;;;;;;;;6306760;22;20429;-66
2023/07/22 03:01:12;;;;;;;4.18;1.77;;;;;;;;;;6279132;22;20505;-65
2023/07/22 03:03:40;;;;;;;4.75;1.70;;;;;;;;;;6274687;22;20074;-64
2023/07/22 03:06:09;;;;;;;3.28;1.48;;;;;;;;;;6276523;22;20341;-65
2023/07/22 03:08:36;;;;;;;6.47;1.73;;;;;;;;;;6276484;22;20047;-65
2023/07/22 03:11:04;;;;;;;5.00;1.70;;;;;;;;;;6277898;22;20311;-65
2023/07/22 03:13:33;;;;;;;4.68;2.10;;;;;;;;;;6277947;22;20023;-65
2023/07/22 03:16:04;;;;;;;7.47;2.92;;;;;;;;;;6277804;22;20333;-64
2023/07/22 03:18:32;;;;;;;6.13;2.58;;;;;;;;;;6276284;22;20467;-64
2023/07/22 03:21:00;;;;;;;5.25;2.08;;;;;;;;;;6276137;22;20020;-64
2023/07/22 03:23:27;;;;;;;4.38;2.10;;;;;;;;;;6276451;22;20019;-64
2023/07/22 03:25:55;;;;;;;4.45;1.70;;;;;;;;;;6277893;22;20457;-64
2023/07/22 03:28:22;;;;;;;5.93;1.70;;;;;;;;;;6276543;22;20019;-64
2023/07/22 03:30:50;;;;;;;4.47;1.90;;;;;;;;;;6276039;22;20015;-64
2023/07/22 03:33:17;;;;;;;4.93;1.85;;;;;;;;;;6277834;22;20018;-64
2023/07/22 03:35:45;;;;;;;5.68;1.80;;;;;;;;;;6276113;22;20023;-65
2023/07/22 03:38:12;;;;;;;8.13;2.00;;;;;;;;;;6277871;22;20457;-64
2023/07/22 03:40:40;;;;;;;6.85;1.58;;;;;;;;;;6276274;22;20505;-65
2023/07/22 03:43:07;;;;;;;4.93;1.73;;;;;;;;;;6277590;22;20020;-65
2023/07/22 03:45:35;;;;;;;3.53;1.42;;;;;;;;;;6275955;22;20022;-64
2023/07/22 03:48:03;;;;;;;4.85;1.63;;;;;;;;;;6276076;22;20020;-64
2023/07/22 03:50:30;;;;;;;5.80;1.52;;;;;;;;;;6275928;22;20393;-65
2023/07/22 03:52:58;;;;;;;7.20;2.03;;;;;;;;;;6277775;22;20030;-65
2023/07/22 03:55:26;;;;;;;2.88;1.42;;;;;;;;;;6277445;22;20046;-64
2023/07/22 03:57:54;;;;;;;3.22;1.52;;;;;;;;;;6275680;22;20051;-65
2023/07/22 04:00:22;;;;;;;9.25;1.45;;;;;;;;;;6277239;22;20033;-64
2023/07/22 04:02:49;;;;;;;6.68;1.90;;;;;;;;;;6288364;22;20045;-64
2023/07/22 04:05:17;;;;;;;5.78;1.83;;;;;;;;;;6281236;22;20025;-64
2023/07/22 04:07:45;;;;;;;7.20;2.10;;;;;;;;;;6280931;22;20102;-64
2023/07/22 04:10:13;;;;;;;7.15;2.40;;;;;;;;;;6308391;22;20025;-65
2023/07/22 04:12:40;;;;;;;4.72;1.90;;;;;;;;;;6280722;22;20473;-64
2023/07/22 04:15:09;;;;;;;4.97;1.70;;;;;;;;;;6281121;22;20022;-64
2023/07/22 04:17:37;;;;;;;6.68;1.70;;;;;;;;;;6280777;22;20019;-64
2023/07/22 04:20:06;;;;;;;2.97;1.95;;;;;;;;;;6280797;22;20026;-65
2023/07/22 04:22:34;;;;;;;5.10;2.00;;;;;;;;;;6280775;22;20015;-64
2023/07/22 04:25:01;;;;;;;5.03;1.80;;;;;;;;;;6281077;22;20070;-65
2023/07/22 04:27:29;;;;;;;5.05;2.28;;;;;;;;;;6280719;22;20019;-65
2023/07/22 04:29:56;;;;;;;3.10;1.60;;;;;;;;;;6280715;22;20319;-64
2023/07/22 04:32:24;;;;;;;7.57;2.30;;;;;;;;;;6255254;22;20050;-65
2023/07/22 04:34:51;;;;;;;6.15;2.05;;;;;;;;;;6280635;22;20061;-65
2023/07/22 04:37:19;;;;;;;4.63;2.03;;;;;;;;;;6308292;22;20015;-65
2023/07/22 04:39:50;;;;;;;5.07;1.88;;;;;;;;;;6307992;22;20007;-65
2023/07/22 04:42:17;;;;;;;3.50;1.90;;;;;;;;;;6307763;22;20510;-65
2023/07/22 04:44:45;;;;;;;3.15;1.90;;;;;;;;;;6307887;22;20015;-64
2023/07/22 04:47:12;;;;;;;3.35;1.88;;;;;;;;;;6307918;22;20018;-65
2023/07/22 04:49:40;;;;;;;5.13;2.20;;;;;;;;;;6307878;22;20402;-65
2023/07/22 04:52:08;;;;;;;7.15;2.20;;;;;;;;;;6307832;22;20055;-65
2023/07/22 04:54:35;;;;;;;4.25;2.00;;;;;;;;;;6280441;22;20323;-65
2023/07/22 04:57:03;;;;;;;7.40;2.30;;;;;;;;;;6308247;22;20015;-65
2023/07/22 04:59:31;;;;;;;8.30;2.17;;;;;;;;;;6307854;22;20086;-65
2023/07/22 05:01:58;;;;;;;2.95;1.90;;;;;;;;;;6307810;22;20046;-65
2023/07/22 05:04:26;;;;;;;5.07;2.20;;;;;;;;;;6307426;22;20334;-65
2023/07/22 05:06:53;;;;;;;4.70;2.30;;;;;;;;;;6307630;22;20015;-64
2023/07/22 05:09:21;;;;;;;3.85;2.17;;;;;;;;;;6280675;22;20022;-65
2023/07/22 05:11:48;;;;;;;6.65;2.30;;;;;;;;;;6307527;22;20023;-65
2023/07/22 05:14:16;;;;;;;6.57;2.40;;;;;;;;;;6307460;22;20540;-65
2023/07/22 05:16:43;;;;;;;7.57;2.20;;;;;;;;;;6307680;22;20022;-65
2023/07/22 05:19:11;;;;;;;8.65;2.40;;;;;;;;;;6307643;22;20445;-65
2023/07/22 05:21:38;;;;;;;3.80;2.10;;;;;;;;;;6307349;22;20069;-65
2023/07/22 05:24:06;;;;;;;4.93;1.80;;;;;;;;;;6307561;22;20015;-65
2023/07/22 05:26:33;;;;;;;8.40;2.25;;;;;;;;;;6307290;22;20043;-65
2023/07/22 05:29:00;;;;;;;5.28;1.95;;;;;;;;;;6307388;22;20061;-65
2023/07/22 05:31:28;;;;;;;6.38;1.90;;;;;;;;;;6307435;22;20064;-65
2023/07/22 05:33:56;;;;;;;5.07;1.80;;;;;;;;;;6307505;22;20389;-65
2023/07/22 05:36:23;;;;;;;6.05;2.20;;;;;;;;;;6307719;22;20098;-65
2023/07/22 05:38:51;;;;;;;8.70;2.30;;;;;;;;;;6307362;22;20073;-65
2023/07/22 05:41:18;;;;;;;5.47;1.90;;;;;;;;;;6307434;22;20019;-65
2023/07/22 05:43:46;;;;;;;2.65;1.90;;;;;;;;;;6279851;22;20015;-65
2023/07/22 05:46:13;;;;;;;6.22;2.25;;;;;;;;;;6307180;22;20038;-65
2023/07/22 05:48:41;;;;;;;4.50;2.10;;;;;;;;;;6307298;22;20095;-65
2023/07/22 05:51:08;;;;;;;3.88;1.67;;;;;;;;;;6307266;22;20019;-66
2023/07/22 05:53:36;;;;;;;7.93;2.20;;;;;;;;;;6279880;22;20102;-66
2023/07/22 05:56:03;;;;;;;9.38;2.33;;;;;;;;;;6307064;22;20019;-65
2023/07/22 05:58:31;;;;;;;4.25;2.10;;;;;;;;;;6307252;22;20052;-65
2023/07/22 06:00:58;;;;;;;5.35;2.10;;;;;;;;;;6307259;22;20437;-65
2023/07/22 06:03:26;;;;;;;4.18;2.33;;;;;;;;;;6306948;22;20076;-65
2023/07/22 06:05:53;;;;;;;5.15;2.08;;;;;;;;;;6307398;22;20019;-65
2023/07/22 06:08:21;;;;;;;7.55;2.15;;;;;;;;;;6306962;22;20506;-65
2023/07/22 06:10:51;;;;;;;4.97;2.22;;;;;;;;;;6280466;22;20015;-65
2023/07/22 06:13:19;;;;;;;7.45;2.17;;;;;;;;;;6306999;22;20026;-65
2023/07/22 06:15:46;;;;;;;3.80;2.53;;;;;;;;;;6306852;22;20018;-65
2023/07/22 06:18:14;;;;;;;7.75;2.47;;;;;;;;;;6297006;22;20101;-66
2023/07/22 06:20:41;;;;;;;5.72;2.40;;;;;;;;;;6299416;22;20012;-64
2023/07/22 06:23:08;;;;;;;5.78;2.20;;;;;;;;;;6299920;22;20027;-64
2023/07/22 06:25:36;;;;;;;4.07;2.22;;;;;;;;;;6299722;22;20023;-64
2023/07/22 06:28:04;;;;;;;6.00;2.38;;;;;;;;;;6272691;22;20030;-65
2023/07/22 06:30:32;;;;;;;11.50;2.88;;;;;;;;;;6299469;22;20019;-65
2023/07/22 06:32:59;;;;;;;8.43;2.30;;;;;;;;;;6299913;22;20019;-64
2023/07/22 06:35:27;;;;;;;9.13;2.67;;;;;;;;;;6300206;22;20311;-65
2023/07/22 06:37:54;;;;;;;10.68;2.65;;;;;;;;;;6299876;22;20027;-64
2023/07/22 06:40:22;;;;;;;4.30;2.20;;;;;;;;;;6299709;22;20023;-64
2023/07/22 06:42:49;;;;;;;5.35;2.53;;;;;;;;;;6299535;22;20085;-64
2023/07/22 06:45:17;;;;;;;4.65;2.38;;;;;;;;;;6300285;22;20019;-65
2023/07/22 06:47:45;;;;;;;7.13;2.40;;;;;;;;;;6300210;22;20084;-64
2023/07/22 06:50:12;;;;;;;5.55;2.60;;;;;;;;;;6300131;22;20445;-65
2023/07/22 06:52:40;;;;;;;7.22;2.70;;;;;;;;;;6299870;22;20086;-64
2023/07/22 06:55:07;;;;;;;5.97;2.42;;;;;;;;;;6300368;22;20026;-64
2023/07/22 06:57:35;;;;;;;7.38;2.50;;;;;;;;;;6300782;22;20434;-66
2023/07/22 07:00:02;;;;;;;4.57;2.42;;;;;;;;;;6300400;22;20019;-66
2023/07/22 07:02:30;;;;;;;8.27;2.85;;;;;;;;;;6299884;22;20016;-66
2023/07/22 07:04:57;;;;;;;5.35;2.50;;;;;;;;;;6299855;22;20520;-66
2023/07/22 07:07:25;;;;;;;5.75;2.72;;;;;;;;;;6300402;22;20337;-66
2023/07/22 07:09:52;;;;;;;4.38;2.30;;;;;;;;;;6300014;22;20099;-66
2023/07/22 07:12:20;;;;;;;10.60;2.60;;;;;;;;;;6300014;22;20049;-64
2023/07/22 07:14:50;;;;;;;7.55;2.60;;;;;;;;;;6299983;22;20115;-64
2023/07/22 07:17:18;;;;;;;8.00;2.92;;;;;;;;;;6299827;22;20015;-64
2023/07/22 07:19:45;;;;;;;7.65;2.55;;;;;;;;;;6300070;22;20019;-64
2023/07/22 07:22:13;;;;;;;9.60;2.17;;;;;;;;;;6300393;22;20019;-64
2023/07/22 07:24:40;;;;;;;4.65;2.20;;;;;;;;;;6299838;22;20353;-64
2023/07/22 07:27:08;;;;;;;7.57;2.78;;;;;;;;;;6299538;22;20021;-64
2023/07/22 07:29:35;;;;;;;8.52;2.63;;;;;;;;;;6299598;22;20027;-64
2023/07/22 07:32:21;;;;;;;5.20;2.58;;;;;;;;;;6299669;22;20015;-65
2023/07/22 07:34:49;;;;;;;8.25;3.08;;;;;;;;;;6299771;22;20019;-64
2023/07/22 07:37:16;;;;;;;6.80;2.78;;;;;;;;;;6300038;22;20030;-66
2023/07/22 07:39:44;;;;;;;6.63;3.05;;;;;;;;;;6299667;22;20019;-63
2023/07/22 07:42:11;;;;;;;7.50;2.45;;;;;;;;;;6298791;22;20019;-64
2023/07/22 07:44:38;;;;;;;5.97;2.38;;;;;;;;;;6299662;22;20019;-64
2023/07/22 07:47:06;;;;;;;5.22;2.10;;;;;;;;;;6299729;22;20464;-64
2023/07/22 07:49:34;;;;;;;9.15;2.50;;;;;;;;;;6300413;22;20015;-64
2023/07/22 07:52:01;;;;;;;6.05;2.33;;;;;;;;;;6301648;22;20090;-64
2023/07/22 07:54:29;;;;;;;7.32;2.70;;;;;;;;;;6301348;22;20073;-64
2023/07/22 07:56:59;;;;;;;9.32;3.05;;;;;;;;;;6301526;22;20088;-64
2023/07/22 07:59:27;;;;;;;7.55;2.42;;;;;;;;;;6301646;22;20093;-64
2023/07/22 08:01:54;;;;;;;5.93;2.53;;;;;;;;;;6301819;22;20430;-65
2023/07/22 08:04:23;;;;;;;7.93;3.25;;;;;;;;;;6301368;22;20184;-64
2023/07/22 08:06:50;;;;;;;7.85;2.33;;;;;;;;;;6301171;22;20502;-64
2023/07/22 08:09:21;;;;;;;7.68;2.58;;;;;;;;;;6301340;22;20137;-64
2023/07/22 08:11:49;;;;;;;9.10;2.65;;;;;;;;;;6301787;22;20026;-64
2023/07/22 08:14:18;;;;;;;5.13;2.42;;;;;;;;;;6301612;22;20011;-66
2023/07/22 08:16:45;;;;;;;9.48;2.33;;;;;;;;;;6301203;22;20023;-65
2023/07/22 08:19:12;;;;;;;9.20;2.42;;;;;;;;;;6301498;22;20056;-65
2023/07/22 08:21:40;;;;;;;6.80;2.60;;;;;;;;;;6301472;22;20038;-64
2023/07/22 08:24:08;;;;;;;7.28;2.67;;;;;;;;;;6301478;22;20023;-64
2023/07/22 08:26:36;;;;;;;5.95;2.72;;;;;;;;;;6301551;22;20450;-65
2023/07/22 08:29:04;;;;;;;8.48;2.90;;;;;;;;;;6301085;22;20019;-65
2023/07/22 08:31:31;;;;;;;7.03;2.58;;;;;;;;;;6301984;22;20019;-64
2023/07/22 08:33:59;;;;;;;8.10;2.50;;;;;;;;;;6301432;22;20700;-65
2023/07/22 08:36:27;;;;;;;5.43;2.60;;;;;;;;;;6274592;22;20386;-65
2023/07/22 08:38:55;;;;;;;4.03;2.42;;;;;;;;;;6273797;22;20026;-64
2023/07/22 08:41:25;;;;;;;4.57;2.38;;;;;;;;;;6301026;22;20019;-65
2023/07/22 08:43:55;;;;;;;5.20;2.35;;;;;;;;;;6301464;22;20174;-64
2023/07/22 08:46:23;;;;;;;6.22;2.88;;;;;;;;;;6301742;22;20061;-65
2023/07/22 08:48:54;;;;;;;5.80;2.30;;;;;;;;;;6301386;22;20045;-65
2023/07/22 08:51:23;;;;;;;6.95;2.45;;;;;;;;;;6301283;22;20073;-65
2023/07/22 08:53:51;;;;;;;7.60;2.47;;;;;;;;;;6300786;22;20027;-65
2023/07/22 08:56:38;;;;;;;5.53;2.80;;;;;;;;;;6301544;22;20347;-66
2023/07/22 08:59:06;;;;;;;5.47;2.85;;;;;;;;;;6301281;22;20029;-65
2023/07/22 09:01:35;;;;;;;7.47;2.53;;;;;;;;;;6300292;22;20023;-65
2023/07/22 09:04:04;;;;;;;5.95;2.75;;;;;;;;;;6300926;22;20026;-64
2023/07/22 09:06:32;;;;;;;5.95;2.60;;;;;;;;;;6300623;22;20118;-65
2023/07/22 09:08:59;;;;;;;4.63;2.40;;;;;;;;;;6300750;22;20383;-64
2023/07/22 09:11:27;;;;;;;10.07;2.83;;;;;;;;;;6301084;22;20076;-64
2023/07/22 09:13:54;;;;;;;5.95;2.55;;;;;;;;;;6300891;22;20015;-64
2023/07/22 09:16:22;;;;;;;8.95;2.90;;;;;;;;;;6300950;22;20018;-65
2023/07/22 09:18:50;;;;;;;5.70;2.42;;;;;;;;;;6300423;22;20023;-64
2023/07/22 09:21:18;;;;;;;6.43;2.30;;;;;;;;;;6301182;22;20015;-64
2023/07/22 09:23:45;;;;;;;5.72;2.50;;;;;;;;;;6301219;22;20019;-64
2023/07/22 09:26:13;;;;;;;5.68;2.90;;;;;;;;;;6301096;22;20408;-64
2023/07/22 09:28:50;;;;;;;6.25;2.75;;;;;;;;;;6300582;22;20015;-64
2023/07/22 09:31:18;;;;;;;4.22;2.40;;;;;;;;;;6300516;22;20526;-64
2023/07/22 09:33:45;;;;;;;6.63;2.38;;;;;;;;;;6300657;22;20023;-64
2023/07/22 09:36:13;;;;;;;6.60;2.70;;;;;;;;;;6300983;22;20019;-64
2023/07/22 09:38:40;;;;;;;9.05;3.10;;;;;;;;;;6300976;22;20050;-64
2023/07/22 09:41:08;;;;;;;6.32;2.45;;;;;;;;;;6300354;22;20419;-64
2023/07/22 09:43:38;;;;;;;6.32;2.72;;;;;;;;;;6300098;22;20039;-64
2023/07/22 09:46:11;;;;;;;6.80;2.55;;;;;;;;;;6272991;22;20489;-65
2023/07/22 09:48:43;;;;;;;8.07;2.92;;;;;;;;;;6300450;22;20076;-64
2023/07/22 09:51:14;;;;;;;4.38;2.40;;;;;;;;;;6300512;22;20015;-64
2023/07/22 09:53:49;;;;;;;5.10;2.45;;;;;;;;;;6300129;22;20617;-66
2023/07/22 09:56:17;;;;;;;5.72;2.60;;;;;;;;;;6300718;22;20018;-65
2023/07/22 09:58:46;;;;;;;63.15;5.93;;;;;;;;;;6300333;22;20019;-64
2023/07/22 10:01:15;;;;;;;11.55;2.97;;;;;;;;;;6300446;22;20019;-65
2023/07/22 10:03:43;;;;;;;7.65;2.80;;;;;;;;;;6300144;22;20019;-64
2023/07/22 10:06:12;;;;;;;6.88;2.90;;;;;;;;;;6299982;22;20322;-65
2023/07/22 10:08:43;;;;;;;6.88;2.67;;;;;;;;;;6300301;22;20019;-65
2023/07/22 10:11:12;;;;;;;6.78;2.70;;;;;;;;;;6300429;22;20110;-65
2023/07/22 10:13:40;;;;;;;8.50;2.75;;;;;;;;;;6273334;22;20018;-65
2023/07/22 10:16:07;;;;;;;5.20;2.40;;;;;;;;;;6300937;22;20011;-64
2023/07/22 10:18:37;;;;;;;7.78;3.00;;;;;;;;;;6299666;22;20461;-65
2023/07/22 10:21:05;;;;;;;5.50;2.83;;;;;;;;;;6299872;22;20492;-67
2023/07/22 10:23:32;;;;;;;6.70;2.72;;;;;;;;;;6299992;22;20074;-64
2023/07/22 10:26:00;;;;;;;9.60;2.97;;;;;;;;;;6300156;22;20514;-64
2023/07/22 10:28:29;;;;;;;6.40;2.80;;;;;;;;;;6299592;22;20050;-66
2023/07/22 10:30:57;;;;;;;6.85;3.08;;;;;;;;;;6271251;22;20027;-64
2023/07/22 10:33:25;;;;;;;9.60;4.70;;;;;;;;;;6298680;22;20015;-68
2023/07/22 10:36:03;;;;;;;10.25;5.78;;;;;;;;;;6299648;22;20050;-70
2023/07/22 10:38:32;;;;;;;7.28;2.88;;;;;;;;;;6298475;22;20042;-71
2023/07/22 10:40:59;;;;;;;6.18;3.25;;;;;;;;;;6298755;22;20022;-70
2023/07/22 10:43:28;;;;;;;5.35;2.63;;;;;;;;;;6299417;22;20085;-69
2023/07/22 10:45:57;;;;;;;4.32;2.53;;;;;;;;;;6299940;22;20064;-66
2023/07/22 10:48:35;;;;;;;8.23;3.40;;;;;;;;;;6299407;22;20450;-67
2023/07/22 10:51:11;;;;;;;5.32;2.80;;;;;;;;;;6299334;22;20058;-67
2023/07/22 10:53:46;;;;;;;7.32;2.90;;;;;;;;;;6246760;22;20027;-67
2023/07/22 10:56:17;;;;;;;6.70;2.83;;;;;;;;;;6299906;22;20015;-67
2023/07/22 10:58:47;;;;;;;6.82;3.45;;;;;;;;;;6299993;22;20076;-67
2023/07/22 11:01:30;;;;;;;7.57;2.78;;;;;;;;;;6298030;22;20015;-67
2023/07/22 11:04:16;;;;;;;4.78;2.65;;;;;;;;;;6299488;22;20382;-67
2023/07/22 11:06:50;;;;;;;8.60;3.63;;;;;;;;;;6271841;22;20023;-66
2023/07/22 11:09:36;;;;;;;9.07;3.05;;;;;;;;;;6300052;22;20023;-67
2023/07/22 11:12:03;;;;;;;7.28;3.10;;;;;;;;;;6300006;22;20015;-65
2023/07/22 11:14:41;;;;;;;8.57;3.47;;;;;;;;;;6298709;22;20029;-66
2023/07/22 11:17:09;;;;;;;7.32;2.80;;;;;;;;;;6271866;22;20019;-66
2023/07/22 11:19:36;;;;;;;6.82;2.75;;;;;;;;;;6299848;22;20019;-66
2023/07/22 11:22:05;;;;;;;7.53;2.85;;;;;;;;;;6299896;22;20019;-67
2023/07/22 11:24:36;;;;;;;5.93;2.90;;;;;;;;;;6300643;22;20046;-66
2023/07/22 11:27:05;;;;;;;4.90;2.40;;;;;;;;;;6301870;22;20100;-65
2023/07/22 11:29:32;;;;;;;8.75;3.67;;;;;;;;;;6300781;22;20026;-67
2023/07/22 11:32:00;;;;;;;7.05;3.55;;;;;;;;;;6274933;22;20015;-65
2023/07/22 11:34:28;;;;;;;8.73;4.50;;;;;;;;;;6301890;22;20220;-65
2023/07/22 11:36:56;;;;;;;6.18;3.08;;;;;;;;;;6300944;22;20019;-67
2023/07/22 11:39:31;;;;;;;6.95;2.85;;;;;;;;;;6301677;22;20027;-66
2023/07/22 11:42:01;;;;;;;8.20;4.22;;;;;;;;;;6301314;22;20011;-66
2023/07/22 11:44:29;;;;;;;9.18;4.25;;;;;;;;;;6301460;22;20461;-66
2023/07/22 11:47:04;;;;;;;5.72;3.17;;;;;;;;;;6301484;22;20447;-66
2023/07/22 11:49:32;;;;;;;9.18;5.90;;;;;;;;;;6273746;22;20027;-66
2023/07/22 11:52:10;;;;;;;6.82;3.92;;;;;;;;;;6301524;22;20049;-66
2023/07/22 11:54:41;;;;;;;5.60;3.00;;;;;;;;;;6273862;22;20077;-64
2023/07/22 11:57:11;;;;;;;6.78;3.13;;;;;;;;;;6302039;22;20016;-65
2023/07/22 11:59:39;;;;;;;9.23;4.10;;;;;;;;;;6301861;22;20379;-65
2023/07/22 12:02:07;;;;;;;7.88;3.22;;;;;;;;;;6301789;22;20019;-68
2023/07/22 12:04:35;;;;;;;8.27;3.15;;;;;;;;;;6274135;22;20023;-66
2023/07/22 12:07:04;;;;;;;6.35;2.92;;;;;;;;;;6274117;22;20023;-65
2023/07/22 12:09:32;;;;;;;8.15;3.00;;;;;;;;;;6301238;22;20030;-66
2023/07/22 12:12:00;;;;;;;9.20;3.28;;;;;;;;;;6301222;22;20023;-67
2023/07/22 12:14:35;;;;;;;8.55;3.72;;;;;;;;;;6301680;22;20055;-65
2023/07/22 12:17:03;;;;;;;8.00;2.90;;;;;;;;;;6301275;22;20019;-65
2023/07/22 12:19:30;;;;;;;8.25;2.90;;;;;;;;;;6301406;22;20019;-65
2023/07/22 12:21:58;;;;;;;9.95;2.85;;;;;;;;;;6301573;22;20495;-65
2023/07/22 12:24:25;;;;;;;8.93;2.85;;;;;;;;;;6301667;22;20038;-65
2023/07/22 12:26:53;;;;;;;7.85;3.17;;;;;;;;;;6301626;22;20049;-65
2023/07/22 12:29:22;;;;;;;10.85;3.10;;;;;;;;;;6301199;22;20452;-65
2023/07/22 12:31:49;;;;;;;6.13;3.28;;;;;;;;;;6301232;22;20029;-65
2023/07/22 12:34:17;;;;;;;9.90;3.15;;;;;;;;;;6300384;22;20022;-65
2023/07/22 12:36:44;;;;;;;8.27;3.33;;;;;;;;;;6300412;22;20101;-65
2023/07/22 12:39:12;;;;;;;6.85;3.28;;;;;;;;;;6300752;22;20540;-65
2023/07/22 12:41:39;;;;;;;8.05;3.03;;;;;;;;;;6300527;22;20377;-67
2023/07/22 12:44:07;;;;;;;9.80;3.35;;;;;;;;;;6271725;22;20524;-65
2023/07/22 12:46:34;;;;;;;8.70;3.05;;;;;;;;;;6299222;22;20502;-65
2023/07/22 12:49:02;;;;;;;7.25;3.33;;;;;;;;;;6299261;22;20029;-65
2023/07/22 12:51:29;;;;;;;8.00;2.80;;;;;;;;;;6299187;22;20015;-65
2023/07/22 12:53:57;;;;;;;166.90;13.35;;;;;;;;;;6298425;22;20008;-67
2023/07/22 12:56:24;;;;;;;6.78;3.08;;;;;;;;;;6299969;22;20039;-67
2023/07/22 12:58:52;;;;;;;8.18;2.88;;;;;;;;;;6271509;22;20311;-65
2023/07/22 13:01:19;;;;;;;5.90;3.30;;;;;;;;;;6298436;22;20057;-66
2023/07/22 13:03:47;;;;;;;6.75;3.42;;;;;;;;;;6298376;22;20102;-65
2023/07/22 13:06:15;;;;;;;8.38;3.20;;;;;;;;;;6298221;22;20118;-67
2023/07/22 13:08:42;;;;;;;8.00;3.88;;;;;;;;;;6298715;22;20015;-67
2023/07/22 13:11:09;;;;;;;9.77;3.13;;;;;;;;;;6271594;22;20047;-65
2023/07/22 13:13:37;;;;;;;8.52;4.30;;;;;;;;;;6298501;22;20368;-64
2023/07/22 13:16:04;;;;;;;9.30;3.08;;;;;;;;;;6298892;22;20081;-65
2023/07/22 13:18:32;;;;;;;9.10;3.60;;;;;;;;;;6271250;22;20160;-65
2023/07/22 13:21:00;;;;;;;8.38;3.60;;;;;;;;;;6298590;22;20015;-65
2023/07/22 13:23:27;;;;;;;6.65;3.35;;;;;;;;;;6298577;22;20025;-65
2023/07/22 13:25:55;;;;;;;8.10;2.97;;;;;;;;;;6298189;22;20445;-65
2023/07/22 13:28:22;;;;;;;6.80;2.92;;;;;;;;;;6298509;22;20011;-65
2023/07/22 13:30:49;;;;;;;8.35;3.60;;;;;;;;;;6299114;22;20102;-65
2023/07/22 13:33:18;;;;;;;7.25;4.20;;;;;;;;;;6298777;22;20025;-64
2023/07/22 13:35:46;;;;;;;6.80;3.10;;;;;;;;;;6298374;22;20038;-65
2023/07/22 13:38:13;;;;;;;6.43;3.20;;;;;;;;;;6298831;22;20026;-65
2023/07/22 13:40:41;;;;;;;8.95;3.40;;;;;;;;;;6270704;22;20112;-66
2023/07/22 13:43:09;;;;;;;9.07;3.58;;;;;;;;;;6298555;22;20092;-65
2023/07/22 13:45:37;;;;;;;10.70;3.17;;;;;;;;;;6298557;22;20023;-64
2023/07/22 13:48:04;;;;;;;9.10;3.55;;;;;;;;;;6299163;22;20011;-65
2023/07/22 13:50:32;;;;;;;7.57;3.35;;;;;;;;;;6298526;22;20741;-66
2023/07/22 13:53:03;;;;;;;7.28;3.50;;;;;;;;;;6297994;22;20022;-65
2023/07/22 13:55:30;;;;;;;9.55;4.05;;;;;;;;;;6298881;22;20015;-65
2023/07/22 13:57:58;;;;;;;8.15;3.20;;;;;;;;;;6298072;22;20046;-65
2023/07/22 14:00:25;;;;;;;8.57;3.53;;;;;;;;;;6298295;22;20019;-66
2023/07/22 14:02:57;;;;;;;12.20;3.85;;;;;;;;;;6271099;22;20023;-66
2023/07/22 14:05:25;;;;;;;10.65;4.53;;;;;;;;;;6298143;22;20054;-67
2023/07/22 14:07:52;;;;;;;7.90;3.80;;;;;;;;;;6298120;22;20015;-65
2023/07/22 14:10:20;;;;;;;10.75;3.50;;;;;;;;;;6297820;22;20041;-66
2023/07/22 14:12:47;;;;;;;8.20;3.35;;;;;;;;;;6298107;22;20126;-66
2023/07/22 14:15:15;;;;;;;9.95;4.32;;;;;;;;;;6297855;22;20023;-66
2023/07/22 14:17:44;;;;;;;8.63;3.88;;;;;;;;;;6297508;22;20011;-66
2023/07/22 14:20:11;;;;;;;8.63;3.80;;;;;;;;;;6297879;22;20042;-66
2023/07/22 14:22:39;;;;;;;8.85;4.53;;;;;;;;;;6298177;22;20022;-66
2023/07/22 14:25:06;;;;;;;11.55;4.00;;;;;;;;;;6298105;22;20027;-66
2023/07/22 14:27:34;;;;;;;8.98;3.92;;;;;;;;;;6298303;22;20060;-66
2023/07/22 14:30:04;;;;;;;9.35;4.10;;;;;;;;;;6298563;22;20019;-66
2023/07/22 14:32:32;;;;;;;11.70;4.35;;;;;;;;;;6297451;22;20326;-66
2023/07/22 14:35:00;;;;;;;9.95;3.85;;;;;;;;;;6297847;22;20019;-66
2023/07/22 14:37:27;;;;;;;10.77;3.88;;;;;;;;;;6298319;22;20019;-66
2023/07/22 14:39:55;;;;;;;9.70;4.47;;;;;;;;;;6298221;22;20019;-66
2023/07/22 14:42:22;;;;;;;9.40;4.85;;;;;;;;;;6297831;22;20451;-66
2023/07/22 14:44:50;;;;;;;8.98;4.22;;;;;;;;;;6297979;22;20026;-65
2023/07/22 14:47:17;;;;;;;7.97;3.80;;;;;;;;;;6298193;22;20047;-66
2023/07/22 14:49:45;;;;;;;11.20;5.18;;;;;;;;;;6297740;22;20019;-67